EWG17V EDDL-LIRQ
Flight info
| Callsign | EWG17V |
|---|---|
| Flight time | 1h 20m |
| Altitude | 35000 |
| Route | DODEN7Z DODEN Y852 TUSUK DCT ULNOK L607 UTABA M738 BATUB DCT TIRUL M738 NATAG DCT LORLO DCT ADOSA DCT OGAPU/N0380F190 Q58 BIKTU |
| Aircraft | A320/M-SDE3FGHIRWY/LB1 |
Departure
| Time | 2026-05-09 03:20 |
|---|---|
| Airport | Düsseldorf Airport (EDDL) |
Arrival
| Time | 2026-05-09 04:40 |
|---|---|
| Airport | Florence Airport, Peretola (LIRQ) |
| Time | Latitude | Longitude | Altitude | Speed | Heading |
|---|---|---|---|---|---|
| 2026-05-09 02:46 | 51.28383 | 6.77214 | 131 ft | 0 kts | 142° |
| 2026-05-09 03:11 | 51.28386 | 6.77210 | 131 ft | 4 kts | 142° |
| 2026-05-09 03:11 | 51.28405 | 6.77187 | 131 ft | 3 kts | 143° |
| 2026-05-09 03:11 | 51.28427 | 6.77170 | 130 ft | 4 kts | 181° |
| 2026-05-09 03:11 | 51.28452 | 6.77180 | 125 ft | 4 kts | 212° |
| 2026-05-09 03:12 | 51.28473 | 6.77206 | 129 ft | 4 kts | 226° |
| 2026-05-09 03:12 | 51.28488 | 6.77235 | 129 ft | 2 kts | 232° |
| 2026-05-09 03:12 | 51.28489 | 6.77235 | 129 ft | 1 kts | 232° |
| 2026-05-09 03:15 | 51.28483 | 6.77223 | 129 ft | 5 kts | 232° |
| 2026-05-09 03:16 | 51.28447 | 6.77147 | 124 ft | 12 kts | 233° |
| 2026-05-09 03:16 | 51.28388 | 6.77026 | 125 ft | 15 kts | 233° |
| 2026-05-09 03:16 | 51.28351 | 6.76910 | 125 ft | 10 kts | 272° |
| 2026-05-09 03:16 | 51.28408 | 6.76825 | 124 ft | 13 kts | 324° |
| 2026-05-09 03:17 | 51.28455 | 6.76711 | 127 ft | 13 kts | 252° |
| 2026-05-09 03:17 | 51.28398 | 6.76582 | 126 ft | 16 kts | 236° |
| 2026-05-09 03:17 | 51.28325 | 6.76432 | 127 ft | 18 kts | 233° |
| 2026-05-09 03:17 | 51.28245 | 6.76267 | 129 ft | 20 kts | 230° |
| 2026-05-09 03:18 | 51.28200 | 6.76162 | 127 ft | 5 kts | 232° |
| 2026-05-09 03:18 | 51.28190 | 6.76119 | 125 ft | 4 kts | 263° |
| 2026-05-09 03:18 | 51.28220 | 6.76057 | 125 ft | 11 kts | 329° |
| 2026-05-09 03:18 | 51.28302 | 6.76043 | 125 ft | 13 kts | 8° |
| 2026-05-09 03:19 | 51.28386 | 6.76104 | 127 ft | 15 kts | 42° |
| 2026-05-09 03:19 | 51.28492 | 6.76315 | 129 ft | 50 kts | 53° |
| 2026-05-09 03:19 | 51.28886 | 6.77141 | 129 ft | 132 kts | 52° |
| 2026-05-09 03:19 | 51.29539 | 6.78520 | 465 ft | 164 kts | 53° |
| 2026-05-09 03:20 | 51.30213 | 6.79969 | 1299 ft | 165 kts | 53° |
| 2026-05-09 03:20 | 51.30919 | 6.81460 | 1899 ft | 175 kts | 53° |
| 2026-05-09 03:20 | 51.31694 | 6.83090 | 2372 ft | 191 kts | 53° |
| 2026-05-09 03:20 | 51.32537 | 6.84864 | 2809 ft | 211 kts | 54° |
| 2026-05-09 03:21 | 51.33461 | 6.86806 | 3379 ft | 228 kts | 56° |
| 2026-05-09 03:21 | 51.34431 | 6.88933 | 3983 ft | 245 kts | 56° |
| 2026-05-09 03:21 | 51.35217 | 6.91426 | 4672 ft | 257 kts | 76° |
| 2026-05-09 03:21 | 51.35299 | 6.94275 | 5556 ft | 261 kts | 102° |
| 2026-05-09 03:22 | 51.34542 | 6.96924 | 6388 ft | 267 kts | 130° |
| 2026-05-09 03:22 | 51.33225 | 6.99068 | 7201 ft | 274 kts | 136° |
| 2026-05-09 03:22 | 51.31844 | 7.01190 | 8060 ft | 278 kts | 136° |
| 2026-05-09 03:22 | 51.30436 | 7.03345 | 8942 ft | 282 kts | 136° |
| 2026-05-09 03:23 | 51.29011 | 7.05525 | 9806 ft | 285 kts | 136° |
| 2026-05-09 03:23 | 51.27581 | 7.07717 | 10513 ft | 295 kts | 136° |
| 2026-05-09 03:23 | 51.26062 | 7.10046 | 10984 ft | 312 kts | 136° |
| 2026-05-09 03:23 | 51.24454 | 7.12516 | 11426 ft | 329 kts | 136° |
| 2026-05-09 03:24 | 51.22809 | 7.15042 | 11818 ft | 346 kts | 136° |
| 2026-05-09 03:24 | 51.21043 | 7.17740 | 12379 ft | 355 kts | 138° |
| 2026-05-09 03:24 | 51.19020 | 7.20034 | 13117 ft | 358 kts | 150° |
| 2026-05-09 03:24 | 51.16863 | 7.22056 | 13833 ft | 362 kts | 150° |
| 2026-05-09 03:25 | 51.14677 | 7.24091 | 14528 ft | 366 kts | 150° |
| 2026-05-09 03:25 | 51.12465 | 7.26138 | 15213 ft | 369 kts | 150° |
| 2026-05-09 03:25 | 51.10232 | 7.28198 | 15873 ft | 373 kts | 150° |
| 2026-05-09 03:25 | 51.07976 | 7.30275 | 16524 ft | 376 kts | 150° |
| 2026-05-09 03:26 | 51.05734 | 7.32337 | 17152 ft | 380 kts | 151° |
| 2026-05-09 03:26 | 51.03421 | 7.34466 | 17763 ft | 383 kts | 151° |
| 2026-05-09 03:26 | 51.01105 | 7.36595 | 18371 ft | 387 kts | 151° |
| 2026-05-09 03:26 | 50.98761 | 7.38748 | 18957 ft | 390 kts | 150° |
| 2026-05-09 03:27 | 50.96400 | 7.40915 | 19536 ft | 394 kts | 150° |
| 2026-05-09 03:27 | 50.94018 | 7.43101 | 20096 ft | 398 kts | 150° |
| 2026-05-09 03:27 | 50.91638 | 7.45280 | 20651 ft | 401 kts | 150° |
| 2026-05-09 03:27 | 50.89182 | 7.47528 | 21181 ft | 405 kts | 150° |
| 2026-05-09 03:28 | 50.86754 | 7.49750 | 21688 ft | 409 kts | 150° |
| 2026-05-09 03:28 | 50.84281 | 7.52011 | 22190 ft | 413 kts | 150° |
| 2026-05-09 03:28 | 50.81784 | 7.54291 | 22689 ft | 416 kts | 150° |
| 2026-05-09 03:28 | 50.79266 | 7.56587 | 23140 ft | 419 kts | 150° |
| 2026-05-09 03:29 | 50.76726 | 7.58898 | 23584 ft | 422 kts | 150° |
| 2026-05-09 03:29 | 50.74169 | 7.61219 | 24047 ft | 425 kts | 150° |
| 2026-05-09 03:29 | 50.71598 | 7.63546 | 24469 ft | 428 kts | 150° |
| 2026-05-09 03:29 | 50.69002 | 7.65895 | 24860 ft | 431 kts | 150° |
| 2026-05-09 03:30 | 50.66384 | 7.68265 | 25241 ft | 434 kts | 150° |
| 2026-05-09 03:30 | 50.63754 | 7.70644 | 25608 ft | 437 kts | 150° |
| 2026-05-09 03:30 | 50.61102 | 7.73039 | 25980 ft | 440 kts | 150° |
| 2026-05-09 03:30 | 50.58438 | 7.75446 | 26333 ft | 443 kts | 150° |
| 2026-05-09 03:31 | 50.55749 | 7.77872 | 26688 ft | 446 kts | 150° |
| 2026-05-09 03:31 | 50.53058 | 7.80289 | 27023 ft | 449 kts | 150° |
| 2026-05-09 03:31 | 50.50367 | 7.82699 | 27355 ft | 451 kts | 150° |
| 2026-05-09 03:31 | 50.47636 | 7.85142 | 27677 ft | 453 kts | 150° |
| 2026-05-09 03:32 | 50.44889 | 7.87598 | 27986 ft | 456 kts | 150° |
| 2026-05-09 03:32 | 50.42132 | 7.90065 | 28295 ft | 458 kts | 150° |
| 2026-05-09 03:32 | 50.39345 | 7.92553 | 28586 ft | 461 kts | 150° |
| 2026-05-09 03:32 | 50.36549 | 7.95038 | 28875 ft | 463 kts | 150° |
| 2026-05-09 03:33 | 50.33744 | 7.97524 | 29138 ft | 465 kts | 150° |
| 2026-05-09 03:33 | 50.30921 | 8.00031 | 29403 ft | 467 kts | 150° |
| 2026-05-09 03:33 | 50.28091 | 8.02549 | 29649 ft | 469 kts | 150° |
| 2026-05-09 03:33 | 50.25251 | 8.05076 | 29908 ft | 470 kts | 150° |
| 2026-05-09 03:34 | 50.22396 | 8.07611 | 30141 ft | 472 kts | 150° |
| 2026-05-09 03:34 | 50.19527 | 8.10151 | 30363 ft | 474 kts | 150° |
| 2026-05-09 03:34 | 50.16654 | 8.12685 | 30659 ft | 474 kts | 150° |
| 2026-05-09 03:34 | 50.13819 | 8.15183 | 30965 ft | 473 kts | 150° |
| 2026-05-09 03:35 | 50.10936 | 8.17644 | 31265 ft | 473 kts | 152° |
| 2026-05-09 03:35 | 50.08015 | 8.20010 | 31560 ft | 472 kts | 153° |
| 2026-05-09 03:35 | 50.05089 | 8.22295 | 31864 ft | 471 kts | 153° |
| 2026-05-09 03:35 | 50.02142 | 8.24555 | 32162 ft | 471 kts | 154° |
| 2026-05-09 03:36 | 49.99205 | 8.26809 | 32453 ft | 470 kts | 153° |
| 2026-05-09 03:36 | 49.96265 | 8.29087 | 32743 ft | 470 kts | 153° |
| 2026-05-09 03:36 | 49.93361 | 8.31363 | 33020 ft | 470 kts | 153° |
| 2026-05-09 03:36 | 49.90429 | 8.33674 | 33294 ft | 470 kts | 153° |
| 2026-05-09 03:37 | 49.87559 | 8.35944 | 33556 ft | 470 kts | 153° |
| 2026-05-09 03:37 | 49.84649 | 8.38245 | 33831 ft | 469 kts | 153° |
| 2026-05-09 03:37 | 49.81748 | 8.40533 | 34108 ft | 469 kts | 154° |
| 2026-05-09 03:37 | 49.78839 | 8.42820 | 34389 ft | 468 kts | 154° |
| 2026-05-09 03:38 | 49.75927 | 8.45099 | 34659 ft | 468 kts | 154° |
| 2026-05-09 03:38 | 49.73024 | 8.47369 | 34921 ft | 468 kts | 154° |
| 2026-05-09 03:38 | 49.70116 | 8.49641 | 35100 ft | 469 kts | 154° |
| 2026-05-09 03:38 | 49.67198 | 8.51911 | 35139 ft | 468 kts | 154° |
| 2026-05-09 03:39 | 49.61370 | 8.56432 | 35137 ft | 468 kts | 155° |
| 2026-05-09 03:39 | 49.55543 | 8.60935 | 35136 ft | 468 kts | 155° |
| 2026-05-09 03:40 | 49.49717 | 8.65432 | 35141 ft | 468 kts | 155° |
| 2026-05-09 03:40 | 49.43880 | 8.69890 | 35135 ft | 468 kts | 156° |
| 2026-05-09 03:41 | 49.37960 | 8.74032 | 35137 ft | 468 kts | 158° |
| 2026-05-09 03:41 | 49.32995 | 8.77373 | 35137 ft | 468 kts | 159° |
| 2026-05-09 03:42 | 49.26067 | 8.82094 | 35133 ft | 468 kts | 158° |
| 2026-05-09 03:42 | 49.21119 | 8.85514 | 35130 ft | 468 kts | 158° |
| 2026-05-09 03:43 | 49.15183 | 8.89642 | 35129 ft | 468 kts | 158° |
| 2026-05-09 03:43 | 49.09244 | 8.93742 | 35122 ft | 468 kts | 159° |
| 2026-05-09 03:44 | 49.03285 | 8.97802 | 35121 ft | 469 kts | 159° |
| 2026-05-09 03:44 | 48.97321 | 9.01868 | 35118 ft | 469 kts | 159° |
| 2026-05-09 03:45 | 48.91368 | 9.05925 | 35117 ft | 469 kts | 159° |
| 2026-05-09 03:45 | 48.85421 | 9.09980 | 35117 ft | 469 kts | 159° |
| 2026-05-09 03:46 | 48.79453 | 9.14035 | 35112 ft | 469 kts | 160° |
| 2026-05-09 03:46 | 48.73489 | 9.18073 | 35109 ft | 469 kts | 160° |
| 2026-05-09 03:47 | 48.67523 | 9.22095 | 35107 ft | 470 kts | 160° |
| 2026-05-09 03:47 | 48.61533 | 9.26114 | 35104 ft | 470 kts | 161° |
| 2026-05-09 03:48 | 48.55508 | 9.29721 | 35103 ft | 468 kts | 164° |
| 2026-05-09 03:48 | 48.49365 | 9.33007 | 35104 ft | 468 kts | 165° |
| 2026-05-09 03:49 | 48.43228 | 9.36295 | 35103 ft | 468 kts | 165° |
| 2026-05-09 03:49 | 48.37096 | 9.39694 | 35108 ft | 469 kts | 164° |
| 2026-05-09 03:50 | 48.30978 | 9.43129 | 35105 ft | 469 kts | 165° |
| 2026-05-09 03:50 | 48.24897 | 9.46486 | 35099 ft | 468 kts | 166° |
| 2026-05-09 03:51 | 48.18693 | 9.49393 | 35101 ft | 465 kts | 169° |
| 2026-05-09 03:51 | 48.12451 | 9.51933 | 35097 ft | 465 kts | 171° |
| 2026-05-09 03:52 | 48.06208 | 9.54493 | 35095 ft | 465 kts | 170° |
| 2026-05-09 03:52 | 48.00162 | 9.58223 | 35090 ft | 478 kts | 153° |
| 2026-05-09 03:53 | 47.94687 | 9.63842 | 35090 ft | 480 kts | 150° |
| 2026-05-09 03:53 | 47.89170 | 9.69468 | 35094 ft | 480 kts | 151° |
| 2026-05-09 03:54 | 47.83638 | 9.75045 | 35095 ft | 480 kts | 151° |
| 2026-05-09 03:54 | 47.78112 | 9.80642 | 35098 ft | 480 kts | 150° |
| 2026-05-09 03:55 | 47.72598 | 9.86247 | 35101 ft | 480 kts | 150° |
| 2026-05-09 03:55 | 47.67084 | 9.91837 | 35104 ft | 480 kts | 151° |
| 2026-05-09 03:56 | 47.61592 | 9.97364 | 35105 ft | 480 kts | 151° |
| 2026-05-09 03:56 | 47.56066 | 10.02910 | 35109 ft | 480 kts | 151° |
| 2026-05-09 03:57 | 47.50533 | 10.08464 | 35117 ft | 479 kts | 151° |
| 2026-05-09 03:57 | 47.45014 | 10.13985 | 35121 ft | 479 kts | 151° |
| 2026-05-09 03:58 | 47.40761 | 10.18220 | 35126 ft | 478 kts | 151° |
| 2026-05-09 03:58 | 47.35234 | 10.23722 | 35132 ft | 478 kts | 151° |
| 2026-05-09 03:59 | 47.29708 | 10.29216 | 35137 ft | 478 kts | 151° |
| 2026-05-09 03:59 | 47.24232 | 10.34636 | 35153 ft | 476 kts | 151° |
| 2026-05-09 04:00 | 47.18732 | 10.40058 | 35154 ft | 476 kts | 151° |
| 2026-05-09 04:00 | 47.13229 | 10.45477 | 35157 ft | 476 kts | 151° |
| 2026-05-09 04:01 | 47.07709 | 10.50882 | 35165 ft | 474 kts | 154° |
| 2026-05-09 04:01 | 47.01769 | 10.54668 | 35152 ft | 462 kts | 169° |
| 2026-05-09 04:02 | 46.95605 | 10.57421 | 35163 ft | 462 kts | 168° |
| 2026-05-09 04:02 | 46.89463 | 10.60212 | 35166 ft | 462 kts | 168° |
| 2026-05-09 04:03 | 46.83327 | 10.62998 | 35168 ft | 461 kts | 168° |
| 2026-05-09 04:03 | 46.77187 | 10.65754 | 35167 ft | 461 kts | 168° |
| 2026-05-09 04:04 | 46.71050 | 10.68445 | 35166 ft | 459 kts | 170° |
| 2026-05-09 04:04 | 46.64893 | 10.70599 | 35167 ft | 456 kts | 173° |
| 2026-05-09 04:05 | 46.58663 | 10.72459 | 35174 ft | 456 kts | 174° |
| 2026-05-09 04:05 | 46.52439 | 10.74376 | 35180 ft | 457 kts | 173° |
| 2026-05-09 04:06 | 46.46245 | 10.76408 | 35175 ft | 457 kts | 172° |
| 2026-05-09 04:06 | 46.40039 | 10.78456 | 35166 ft | 458 kts | 173° |
| 2026-05-09 04:07 | 46.33818 | 10.80477 | 35162 ft | 457 kts | 173° |
| 2026-05-09 04:07 | 46.27604 | 10.82483 | 35157 ft | 457 kts | 173° |
| 2026-05-09 04:08 | 46.21440 | 10.84461 | 35160 ft | 457 kts | 173° |
| 2026-05-09 04:08 | 46.15227 | 10.86458 | 35166 ft | 457 kts | 173° |
| 2026-05-09 04:09 | 46.09026 | 10.88457 | 35182 ft | 456 kts | 173° |
| 2026-05-09 04:09 | 46.02823 | 10.90449 | 35185 ft | 457 kts | 173° |
| 2026-05-09 04:10 | 45.96610 | 10.92434 | 35195 ft | 456 kts | 172° |
| 2026-05-09 04:10 | 45.90455 | 10.94399 | 35195 ft | 455 kts | 173° |
| 2026-05-09 04:11 | 45.84269 | 10.96361 | 35181 ft | 455 kts | 173° |
| 2026-05-09 04:11 | 45.78076 | 10.98321 | 35166 ft | 455 kts | 173° |
| 2026-05-09 04:12 | 45.71898 | 11.00283 | 35150 ft | 455 kts | 173° |
| 2026-05-09 04:12 | 45.65695 | 11.02237 | 35134 ft | 455 kts | 173° |
| 2026-05-09 04:13 | 45.59515 | 11.04299 | 35128 ft | 457 kts | 171° |
| 2026-05-09 04:13 | 45.53351 | 11.06597 | 35115 ft | 458 kts | 170° |
| 2026-05-09 04:14 | 45.47231 | 11.08896 | 35108 ft | 458 kts | 171° |
| 2026-05-09 04:14 | 45.41057 | 11.11149 | 35103 ft | 457 kts | 171° |
| 2026-05-09 04:15 | 45.34875 | 11.13366 | 35103 ft | 457 kts | 171° |
| 2026-05-09 04:15 | 45.28709 | 11.15574 | 35096 ft | 457 kts | 171° |
| 2026-05-09 04:16 | 45.22538 | 11.17789 | 35096 ft | 457 kts | 171° |
| 2026-05-09 04:16 | 45.16372 | 11.20009 | 35094 ft | 457 kts | 171° |
| 2026-05-09 04:17 | 45.10247 | 11.22207 | 35089 ft | 457 kts | 171° |
| 2026-05-09 04:17 | 45.04068 | 11.24408 | 35087 ft | 457 kts | 171° |
| 2026-05-09 04:18 | 44.97903 | 11.26601 | 35087 ft | 457 kts | 171° |
| 2026-05-09 04:18 | 44.91728 | 11.28802 | 35092 ft | 457 kts | 171° |
| 2026-05-09 04:19 | 44.88640 | 11.29899 | 34895 ft | 457 kts | 171° |
| 2026-05-09 04:19 | 44.85554 | 11.30990 | 34645 ft | 457 kts | 171° |
| 2026-05-09 04:19 | 44.82464 | 11.32082 | 34390 ft | 457 kts | 171° |
| 2026-05-09 04:19 | 44.79377 | 11.33173 | 33552 ft | 459 kts | 171° |
| 2026-05-09 04:20 | 44.76270 | 11.34269 | 32568 ft | 462 kts | 170° |
| 2026-05-09 04:20 | 44.73138 | 11.35369 | 31514 ft | 466 kts | 170° |
| 2026-05-09 04:20 | 44.70024 | 11.36462 | 30471 ft | 468 kts | 170° |
| 2026-05-09 04:20 | 44.66855 | 11.37575 | 29352 ft | 471 kts | 169° |
| 2026-05-09 04:21 | 44.63684 | 11.38691 | 28647 ft | 465 kts | 169° |
| 2026-05-09 04:21 | 44.60574 | 11.39795 | 27935 ft | 459 kts | 169° |
| 2026-05-09 04:21 | 44.54432 | 11.41964 | 26419 ft | 451 kts | 169° |
| 2026-05-09 04:22 | 44.51394 | 11.43027 | 25697 ft | 448 kts | 169° |
| 2026-05-09 04:22 | 44.48383 | 11.44082 | 25015 ft | 443 kts | 169° |
| 2026-05-09 04:22 | 44.45405 | 11.45124 | 24333 ft | 439 kts | 169° |
| 2026-05-09 04:22 | 44.42450 | 11.46157 | 23669 ft | 435 kts | 169° |
| 2026-05-09 04:23 | 44.39523 | 11.47176 | 23029 ft | 431 kts | 169° |
| 2026-05-09 04:23 | 44.36620 | 11.48183 | 22409 ft | 427 kts | 168° |
| 2026-05-09 04:23 | 44.33747 | 11.49176 | 21823 ft | 423 kts | 168° |
| 2026-05-09 04:23 | 44.30902 | 11.50162 | 21258 ft | 419 kts | 168° |
| 2026-05-09 04:24 | 44.28084 | 11.51140 | 20730 ft | 414 kts | 168° |
| 2026-05-09 04:24 | 44.25342 | 11.52093 | 20203 ft | 410 kts | 168° |
| 2026-05-09 04:24 | 44.22580 | 11.53052 | 19687 ft | 406 kts | 168° |
| 2026-05-09 04:24 | 44.19848 | 11.54001 | 19169 ft | 403 kts | 168° |
| 2026-05-09 04:25 | 44.17135 | 11.54890 | 18654 ft | 398 kts | 172° |
| 2026-05-09 04:25 | 44.14403 | 11.55217 | 18147 ft | 392 kts | 182° |
| 2026-05-09 04:25 | 44.11696 | 11.54999 | 17619 ft | 387 kts | 186° |
| 2026-05-09 04:25 | 44.09025 | 11.54737 | 17221 ft | 381 kts | 185° |
| 2026-05-09 04:26 | 44.06434 | 11.54494 | 17096 ft | 367 kts | 185° |
| 2026-05-09 04:26 | 44.03933 | 11.54266 | 16969 ft | 354 kts | 185° |
| 2026-05-09 04:26 | 44.01528 | 11.53951 | 16843 ft | 340 kts | 193° |
| 2026-05-09 04:26 | 43.99318 | 11.53005 | 16730 ft | 327 kts | 206° |
| 2026-05-09 04:27 | 43.97360 | 11.51482 | 16451 ft | 320 kts | 214° |
| 2026-05-09 04:27 | 43.96109 | 11.50403 | 16196 ft | 320 kts | 213° |
| 2026-05-09 04:27 | 43.94218 | 11.48777 | 15784 ft | 316 kts | 213° |
| 2026-05-09 04:27 | 43.92354 | 11.47178 | 15098 ft | 314 kts | 213° |
| 2026-05-09 04:28 | 43.90497 | 11.45588 | 14424 ft | 314 kts | 213° |
| 2026-05-09 04:28 | 43.88633 | 11.43996 | 14052 ft | 312 kts | 213° |
| 2026-05-09 04:28 | 43.86805 | 11.42436 | 13474 ft | 308 kts | 213° |
| 2026-05-09 04:28 | 43.84986 | 11.40881 | 12903 ft | 308 kts | 212° |
| 2026-05-09 04:29 | 43.83154 | 11.39318 | 12471 ft | 309 kts | 212° |
| 2026-05-09 04:29 | 43.81331 | 11.37765 | 12065 ft | 308 kts | 212° |
| 2026-05-09 04:29 | 43.79505 | 11.36212 | 11714 ft | 305 kts | 212° |
| 2026-05-09 04:29 | 43.77700 | 11.34676 | 11380 ft | 303 kts | 212° |
| 2026-05-09 04:30 | 43.75955 | 11.33133 | 11017 ft | 301 kts | 218° |
| 2026-05-09 04:30 | 43.74448 | 11.31150 | 10639 ft | 298 kts | 229° |
| 2026-05-09 04:30 | 43.73077 | 11.29000 | 10251 ft | 297 kts | 229° |
| 2026-05-09 04:30 | 43.71713 | 11.26875 | 9781 ft | 291 kts | 229° |
| 2026-05-09 04:31 | 43.70371 | 11.24794 | 9079 ft | 289 kts | 229° |
| 2026-05-09 04:31 | 43.69035 | 11.22727 | 8402 ft | 286 kts | 228° |
| 2026-05-09 04:31 | 43.67730 | 11.20719 | 8129 ft | 274 kts | 228° |
| 2026-05-09 04:31 | 43.66492 | 11.18812 | 8038 ft | 260 kts | 228° |
| 2026-05-09 04:32 | 43.65311 | 11.16991 | 7936 ft | 248 kts | 228° |
| 2026-05-09 04:32 | 43.64184 | 11.15257 | 7825 ft | 237 kts | 228° |
| 2026-05-09 04:32 | 43.63079 | 11.13570 | 7393 ft | 236 kts | 228° |
| 2026-05-09 04:32 | 43.61984 | 11.11902 | 6966 ft | 232 kts | 228° |
| 2026-05-09 04:33 | 43.60923 | 11.10287 | 6563 ft | 228 kts | 228° |
| 2026-05-09 04:33 | 43.60118 | 11.08463 | 6168 ft | 222 kts | 256° |
| 2026-05-09 04:33 | 43.60123 | 11.06394 | 5798 ft | 215 kts | 288° |
| 2026-05-09 04:33 | 43.60894 | 11.04682 | 5413 ft | 210 kts | 317° |
| 2026-05-09 04:34 | 43.61980 | 11.03355 | 5048 ft | 206 kts | 318° |
| 2026-05-09 04:34 | 43.63044 | 11.02047 | 4673 ft | 204 kts | 318° |
| 2026-05-09 04:34 | 43.64092 | 11.00756 | 4379 ft | 197 kts | 318° |
| 2026-05-09 04:34 | 43.65116 | 10.99536 | 4337 ft | 194 kts | 327° |
| 2026-05-09 04:35 | 43.66369 | 10.99034 | 4118 ft | 192 kts | 7° |
| 2026-05-09 04:35 | 43.67540 | 10.99778 | 3900 ft | 186 kts | 46° |
| 2026-05-09 04:35 | 43.68402 | 11.01104 | 3667 ft | 185 kts | 48° |
| 2026-05-09 04:35 | 43.69261 | 11.02425 | 3425 ft | 184 kts | 48° |
| 2026-05-09 04:36 | 43.70114 | 11.03735 | 3198 ft | 182 kts | 48° |
| 2026-05-09 04:36 | 43.70952 | 11.05022 | 2947 ft | 179 kts | 48° |
| 2026-05-09 04:36 | 43.71775 | 11.06285 | 2710 ft | 174 kts | 48° |
| 2026-05-09 04:36 | 43.72565 | 11.07497 | 2476 ft | 166 kts | 48° |
| 2026-05-09 04:37 | 43.73335 | 11.08681 | 2257 ft | 166 kts | 49° |
| 2026-05-09 04:37 | 43.74105 | 11.09867 | 2037 ft | 166 kts | 49° |
| 2026-05-09 04:37 | 43.74849 | 11.11014 | 1832 ft | 153 kts | 47° |
| 2026-05-09 04:37 | 43.75533 | 11.12067 | 1635 ft | 141 kts | 47° |
| 2026-05-09 04:38 | 43.76183 | 11.13069 | 1447 ft | 140 kts | 47° |
| 2026-05-09 04:38 | 43.76833 | 11.14070 | 1262 ft | 140 kts | 47° |
| 2026-05-09 04:38 | 43.77480 | 11.15069 | 1073 ft | 139 kts | 47° |
| 2026-05-09 04:38 | 43.78124 | 11.16062 | 890 ft | 138 kts | 47° |
| 2026-05-09 04:39 | 43.78766 | 11.17051 | 697 ft | 138 kts | 47° |
| 2026-05-09 04:39 | 43.79407 | 11.18039 | 524 ft | 137 kts | 47° |
| 2026-05-09 04:39 | 43.80044 | 11.19022 | 324 ft | 137 kts | 47° |
| 2026-05-09 04:39 | 43.80669 | 11.19992 | 150 ft | 136 kts | 47° |
| 2026-05-09 04:40 | 43.81221 | 11.20843 | 129 ft | 68 kts | 49° |
| 2026-05-09 04:40 | 43.81383 | 11.21096 | 133 ft | 29 kts | 49° |
| 2026-05-09 04:40 | 43.81480 | 11.21245 | 132 ft | 17 kts | 49° |
| 2026-05-09 04:40 | 43.81489 | 11.21340 | 137 ft | 8 kts | 140° |
| 2026-05-09 04:41 | 43.81454 | 11.21358 | 139 ft | 4 kts | 161° |
| 2026-05-09 04:41 | 43.81420 | 11.21374 | 142 ft | 7 kts | 161° |
| 2026-05-09 04:41 | 43.81362 | 11.21371 | 145 ft | 11 kts | 208° |
| 2026-05-09 04:41 | 43.81299 | 11.21283 | 144 ft | 14 kts | 228° |
| 2026-05-09 04:42 | 43.81257 | 11.21171 | 141 ft | 14 kts | 272° |
| 2026-05-09 04:42 | 43.81264 | 11.21009 | 135 ft | 20 kts | 273° |
| 2026-05-09 04:42 | 43.81224 | 11.20848 | 131 ft | 20 kts | 232° |
| 2026-05-09 04:42 | 43.81124 | 11.20693 | 128 ft | 23 kts | 233° |
| 2026-05-09 04:43 | 43.81010 | 11.20521 | 127 ft | 26 kts | 230° |
| 2026-05-09 04:43 | 43.80900 | 11.20346 | 126 ft | 22 kts | 228° |
| 2026-05-09 04:43 | 43.80796 | 11.20184 | 132 ft | 23 kts | 228° |
| 2026-05-09 04:43 | 43.80707 | 11.20054 | 132 ft | 16 kts | 218° |
| 2026-05-09 04:44 | 43.80596 | 11.20007 | 132 ft | 17 kts | 193° |
| 2026-05-09 04:44 | 43.80495 | 11.19972 | 133 ft | 12 kts | 194° |
| 2026-05-09 04:44 | 43.80420 | 11.19944 | 132 ft | 8 kts | 202° |
| 2026-05-09 04:44 | 43.80394 | 11.19930 | 132 ft | 5 kts | 189° |
| 2026-05-09 04:45 | 43.80355 | 11.19979 | 125 ft | 9 kts | 106° |
| 2026-05-09 04:45 | 43.80323 | 11.20017 | 126 ft | 5 kts | 160° |
| 2026-05-09 04:45 | 43.80304 | 11.20027 | 127 ft | 1 kts | 159° |
| 2026-05-09 04:45 | 43.80297 | 11.20031 | 126 ft | 0 kts | 159° |